Latest Weather Observations for Amberley

IDQ60801

Issued at 9:32 am EST Saturday 23 May 2015 (issued every 30 minutes, with the page automatically refreshed every 10 minutes)

About weather observations | Map of weather stations | Latest weather observations for QLD | Other Formats
Station Details ID: 040004 Name: AMBERLEY AMO Lat: -27.63 Lon: 152.71 Height: 24.2 m
Data from the previous 72 hours. | See also: Recent months at Amberley
Date/Time
EST
Temp
°C
App
Temp
°C
Dew
Point
Rel
Hum
%
Delta-T
°C
Wind Press
QNH
hPa
Press
MSL
hPa
Rain
since 9 am
mm
Dir
 
Spd
km/h
Gust
km/h
Spd
kts
Gust
kts
23/08:30am 16.6 13.9 9.0 61 3.9 WSW 13 17 7 9 1023.5 - 0.0
23/07:00am 9.0 6.7 7.5 90 0.7 NNW 9 11 5 6 1022.4 - 0.0
23/06:30am 9.4 6.7 7.3 87 1.0 W 11 13 6 7 1021.8 - 0.0
23/05:30am 9.5 6.9 7.8 89 0.8 NW 11 13 6 7 1021.0 - 0.0
23/05:00am 8.1 5.7 7.0 93 0.5 SW 9 15 5 8 1020.9 - 0.0
23/04:30am 8.6 7.3 7.5 93 0.5 N 4 7 2 4 1020.8 - 0.0
23/04:00am 8.9 7.1 7.8 93 0.5 NW 7 11 4 6 1020.6 - 0.0
23/03:30am 10.3 8.6 8.5 89 0.9 S 7 15 4 8 1020.4 - 0.0
23/03:00am 10.4 10.1 8.8 90 0.8 CALM 0 0 0 0 1020.5 1020.5 0.0
23/02:30am 11.3 10.4 9.1 86 1.1 WSW 4 7 2 4 1020.3 - 0.0
23/02:00am 11.0 9.4 8.8 86 1.1 WNW 7 9 4 5 1020.3 - 0.0
23/01:30am 11.8 11.6 9.2 84 1.3 CALM 0 7 0 4 1020.3 - 0.0
23/01:00am 11.4 9.9 9.0 85 1.2 NW 7 11 4 6 1020.3 - 0.0
23/12:30am 12.1 11.6 9.3 83 1.4 NW 2 7 1 4 1020.1 - 0.0
 
Date/Time
EST
Temp
°C
App
Temp
°C
Dew
Point
Rel
Hum
%
Delta-T
°C
Wind Press
QNH
hPa
Press
MSL
hPa
Rain
since 9 am
mm
Dir
 
Spd
km/h
Gust
km/h
Spd
kts
Gust
kts
22/11:30pm 13.1 11.3 9.3 78 1.9 N 9 11 5 6 1020.0 - 0.0
22/11:00pm 11.9 10.0 8.9 82 1.5 W 9 11 5 6 1019.9 - 0.0
22/10:30pm 12.5 9.3 8.5 76 2.0 W 15 22 8 12 1019.6 - 0.0
22/10:00pm 12.4 8.9 8.8 79 1.8 NW 17 19 9 10 1019.9 - 0.0
22/09:30pm 12.5 9.0 8.7 77 1.9 NW 17 19 9 10 1019.8 - 0.0
22/09:00pm 11.2 8.3 8.1 81 1.5 NW 13 15 7 8 1019.6 1019.5 0.0
22/08:30pm 13.9 9.8 7.8 66 3.0 W 19 26 10 14 1019.4 - 0.0
22/08:00pm 14.3 10.5 7.6 64 3.3 W 17 22 9 12 1019.0 - 0.0
22/07:30pm 13.8 10.0 7.5 66 3.1 W 17 22 9 12 1018.6 - 0.0
22/07:00pm 13.1 10.1 7.6 69 2.7 NW 13 17 7 9 1018.4 - 0.0
22/06:30pm 10.8 7.3 7.2 78 1.7 NW 15 17 8 9 1017.6 - 0.0
22/05:30pm 15.8 11.3 6.3 53 4.6 W 19 26 10 14 1016.9 - 0.0
22/05:00pm 16.8 13.8 5.9 48 5.3 WNW 11 15 6 8 1016.8 - 0.0
22/04:30pm 17.8 11.4 5.4 44 6.0 WSW 28 37 15 20 1016.1 - 0.0
22/04:00pm 18.4 13.6 5.4 42 6.3 WSW 20 35 11 19 1016.4 - 0.0
22/03:30pm 18.8 12.8 5.2 40 6.6 WSW 26 35 14 19 1015.8 - 0.0
22/03:00pm 18.8 13.2 5.5 41 6.5 W 24 39 13 21 1015.5 1015.4 0.0
22/02:30pm 19.6 13.5 5.0 38 7.1 W 26 41 14 22 1015.5 - 0.0
22/02:00pm 18.9 12.0 4.5 38 6.9 WSW 30 41 16 22 1016.0 - 0.0
22/01:30pm 19.6 13.5 4.7 37 7.2 WSW 26 39 14 21 1015.9 - 0.0
22/01:00pm 19.1 12.9 4.2 37 7.1 W 26 35 14 19 1016.2 - 0.0
22/12:30pm 18.7 11.5 4.8 40 6.7 W 32 41 17 22 1016.6 - 0.0
22/12:00pm 18.3 11.1 5.0 41 6.4 W 32 48 17 26 1016.8 1016.7 0.0
22/11:30am 17.9 10.7 5.0 42 6.2 W 32 44 17 24 1017.1 - 0.0
22/11:00am 18.1 12.2 5.8 44 6.0 WSW 26 35 14 19 1017.5 - 0.0
22/10:30am 17.8 12.4 6.5 47 5.6 W 24 33 13 18 1017.8 - 0.0
22/10:00am 17.3 11.4 5.8 46 5.6 W 26 35 14 19 1018.1 - 0.0
22/09:30am 17.6 13.2 7.2 50 5.2 WSW 20 28 11 15 1018.1 - 0.0
22/09:00am 17.0 13.3 7.9 55 4.6 WNW 17 26 9 14 1018.0 1017.9 2.0
22/08:30am 15.9 11.0 8.4 61 3.8 WNW 24 32 13 17 1017.7 - 2.0
22/08:00am 15.0 10.0 8.0 63 3.5 WNW 24 30 13 16 1017.2 - 2.0
22/07:30am 14.1 10.2 8.7 70 2.7 NW 19 22 10 12 1017.0 - 2.0
22/07:00am 13.3 9.5 9.1 76 2.1 WNW 19 24 10 13 1016.7 - 2.0
22/06:30am 12.9 11.6 9.8 81 1.6 WNW 7 9 4 5 1016.3 - 2.0
22/06:00am 14.9 12.9 10.1 73 2.5 WSW 11 13 6 7 1016.2 1016.1 2.0
22/05:30am 14.8 12.3 11.0 78 2.0 W 15 19 8 10 1016.1 - 2.0
22/05:00am 15.4 13.1 11.7 78 2.0 W 15 24 8 13 1015.9 - 2.0
22/04:30am 15.8 13.2 12.1 78 2.0 W 17 22 9 12 1015.6 - 2.0
22/04:00am 16.3 14.4 12.9 80 1.9 WNW 15 19 8 10 1015.8 - 2.0
22/03:30am 15.7 14.1 13.9 89 1.0 NW 15 17 8 9 1015.8 - 2.0
22/03:00am 15.9 13.9 14.0 88 1.1 WNW 17 20 9 11 1015.8 1015.7 2.0
22/02:30am 16.0 14.0 13.9 87 1.2 NW 17 19 9 10 1015.8 - 2.0
22/02:00am 16.1 14.2 14.2 88 1.1 NW 17 22 9 12 1016.0 - 2.0
22/01:30am 16.1 15.0 14.3 89 1.0 WNW 13 17 7 9 1016.1 - 2.0
22/01:00am 16.1 14.7 14.5 90 0.9 NW 15 19 8 10 1016.5 - 2.0
22/12:30am 16.1 15.1 14.7 91 0.8 NW 13 15 7 8 1016.8 - 2.0
22/12:00am 16.0 14.3 14.6 91 0.8 NW 17 19 9 10 1017.4 1017.3 2.0
 
Date/Time
EST
Temp
°C
App
Temp
°C
Dew
Point
Rel
Hum
%
Delta-T
°C
Wind Press
QNH
hPa
Press
MSL
hPa
Rain
since 9 am
mm
Dir
 
Spd
km/h
Gust
km/h
Spd
kts
Gust
kts
21/11:30pm 16.0 15.0 14.6 91 0.8 NNW 13 17 7 9 1017.4 - 2.0
21/11:00pm 16.0 15.3 14.4 90 0.9 NNW 11 15 6 8 1017.5 - 2.0
21/10:30pm 15.9 14.9 14.7 93 0.7 NW 13 15 7 8 1017.8 - 1.6
21/10:00pm 16.0 15.8 14.6 91 0.8 NNW 9 13 5 7 1017.9 - 1.4
21/09:30pm 16.3 15.3 14.6 90 1.0 NW 13 17 7 9 1018.4 - 1.4
21/09:00pm 16.5 15.2 14.8 90 1.0 WNW 15 19 8 10 1018.2 1018.1 1.2
21/08:30pm 16.6 16.4 14.7 88 1.1 N 9 9 5 5 1017.8 - 0.8
21/08:00pm 17.1 16.6 14.8 86 1.3 WNW 11 13 6 7 1017.7 - 0.4
21/07:30pm 18.2 17.3 13.6 74 2.6 NW 11 15 6 8 1017.8 - 0.0
21/07:00pm 18.9 17.8 13.0 68 3.3 WNW 11 13 6 7 1017.6 - 0.0
21/06:30pm 19.5 17.9 12.9 65 3.7 NW 13 17 7 9 1017.4 - 0.0
21/06:00pm 19.7 18.4 13.8 69 3.4 NW 13 15 7 8 1017.3 1017.2 0.0
21/05:30pm 19.9 21.2 14.0 69 3.4 CALM 0 0 0 0 1017.1 - 0.0
21/05:00pm 21.0 19.5 13.1 60 4.5 WSW 13 19 7 10 1017.2 - 0.0
21/04:30pm 21.5 20.3 13.9 62 4.4 SW 13 17 7 9 1016.9 - 0.0
21/04:00pm 21.1 21.1 15.2 69 3.5 WNW 9 13 5 7 1016.6 - 0.0
21/03:30pm 21.3 20.5 15.0 67 3.7 WNW 13 17 7 9 1016.4 - 0.0
21/03:00pm 21.4 19.9 15.2 68 3.7 W 17 22 9 12 1016.2 1016.1 0.0
21/02:30pm 21.9 21.1 15.0 65 4.1 W 13 17 7 9 1015.9 - 0.0
21/02:00pm 22.6 22.0 15.6 64 4.2 WNW 13 19 7 10 1015.9 - 0.0
21/01:30pm 23.0 22.0 15.7 63 4.4 WNW 15 24 8 13 1015.7 - 0.0
21/01:00pm 22.9 22.0 15.9 64 4.2 W 15 24 8 13 1016.2 - 0.0
21/12:30pm 22.7 21.3 16.5 68 3.8 W 19 28 10 15 1016.8 - 0.0
21/12:00pm 23.3 23.6 17.0 67 3.9 W 11 19 6 10 1017.0 1016.9 0.0
21/11:30am 23.2 23.7 17.4 70 3.6 W 11 15 6 8 1017.7 - 0.0
21/11:00am 22.2 22.7 17.5 74 2.9 NW 11 15 6 8 1018.3 - 0.0
21/10:30am 22.3 22.9 17.8 75 2.8 WNW 11 15 6 8 1018.4 - 0.0
21/10:00am 21.9 21.8 17.9 78 2.5 NW 15 19 8 10 1018.9 - 0.0
21/09:30am 21.2 22.0 18.1 82 1.9 WNW 11 13 6 7 1019.0 - 0.0
21/09:00am 19.1 20.8 18.1 94 0.6 NW 6 9 3 5 1019.1 1019.0 0.0
21/08:30am 17.8 20.3 17.3 97 0.3 CALM 0 6 0 3 1018.7 - 0.0
21/08:22am 17.8 19.6 17.5 98 0.2 N 4 9 2 5 1018.7 - 0.0
21/08:00am 17.0 19.3 16.7 98 0.2 CALM 0 0 0 0 1018.8 - 0.0
21/07:30am 16.7 18.9 16.5 99 0.1 CALM 0 0 0 0 1018.8 - 0.0
21/07:00am 16.3 18.3 16.0 98 0.2 CALM 0 0 0 0 1018.5 - 0.0
21/06:30am 15.8 16.5 15.6 99 0.1 N 6 7 3 4 1018.3 - 0.0
21/06:19am 15.8 16.3 15.5 98 0.2 NNE 7 7 4 4 1018.3 - 0.0
21/06:00am 15.8 17.2 15.5 98 0.2 NW 2 9 1 5 1018.2 1018.1 0.0
21/05:41am 16.0 16.6 15.7 98 0.2 W 7 11 4 6 1018.0 - 0.0
21/05:30am 16.1 16.6 15.6 97 0.3 SW 7 9 4 5 1018.2 - 0.0
21/05:12am 15.8 16.3 15.5 98 0.2 SSW 7 9 4 5 1017.5 - 0.0
21/05:00am 15.8 16.2 15.3 97 0.3 SW 7 9 4 5 1017.8 - 0.0
21/04:50am 15.6 15.6 15.3 98 0.2 SW 9 11 5 6 1017.6 - 0.0
21/04:30am 15.2 16.4 14.9 98 0.2 - 2 9 1 5 1017.4 - 0.0
21/04:00am 14.2 15.4 13.8 97 0.2 CALM 0 0 0 0 1017.3 - 0.0
21/03:36am 14.3 15.6 14.1 99 0.1 CALM 0 0 0 0 1017.8 - 0.0
21/03:30am 14.7 16.1 14.3 97 0.2 CALM 0 0 0 0 1017.9 - 0.0
21/03:00am 14.3 15.5 13.9 97 0.2 CALM 0 0 0 0 1017.8 1017.7 0.0
21/02:30am 14.2 15.5 14.0 99 0.1 CALM 0 7 0 4 1017.8 - 0.0
21/02:00am 14.1 15.3 13.7 97 0.2 CALM 0 0 0 0 1017.8 - 0.0
21/01:55am 14.1 15.2 13.6 97 0.3 CALM 0 0 0 0 1017.8 - 0.0
21/01:30am 15.1 16.6 14.6 97 0.3 CALM 0 0 0 0 1018.1 - 0.0
21/01:23am 15.2 16.7 14.7 97 0.3 CALM 0 0 0 0 1018.1 - 0.0
21/01:00am 15.7 17.5 15.4 98 0.2 CALM 0 0 0 0 1018.4 - 0.0
21/12:59am 15.7 17.4 15.2 97 0.3 CALM 0 0 0 0 1018.4 - 0.0
21/12:51am 15.8 17.5 15.3 97 0.3 CALM 0 0 0 0 1018.4 - 0.0
21/12:40am 15.6 17.2 14.9 96 0.4 CALM 0 0 0 0 1018.3 - 0.0
21/12:30am 15.3 17.0 15.1 99 0.1 CALM 0 0 0 0 1018.3 - 0.0
21/12:00am 15.6 17.3 15.3 98 0.2 CALM 0 0 0 0 1018.6 1018.5 0.0
 
Date/Time
EST
Temp
°C
App
Temp
°C
Dew
Point
Rel
Hum
%
Delta-T
°C
Wind Press
QNH
hPa
Press
MSL
hPa
Rain
since 9 am
mm
Dir
 
Spd
km/h
Gust
km/h
Spd
kts
Gust
kts
20/11:46pm 16.4 18.4 15.9 97 0.3 CALM 0 0 0 0 1018.8 - 0.0
20/11:30pm 16.2 18.2 15.9 98 0.2 CALM 0 0 0 0 1018.8 - 0.0
20/11:00pm 16.8 18.8 16.1 96 0.4 CALM 0 0 0 0 1018.6 - 0.0
20/10:30pm 17.2 19.5 16.7 97 0.3 CALM 0 0 0 0 1018.6 - 0.0
20/10:27pm 17.1 19.4 16.8 98 0.2 CALM 0 0 0 0 1018.7 - 0.0
20/10:00pm 17.4 19.8 16.9 97 0.3 CALM 0 0 0 0 1019.0 - 0.0
20/09:30pm 17.3 19.5 16.6 96 0.4 CALM 0 0 0 0 1019.0 - 0.0
20/09:00pm 17.9 18.2 16.9 94 0.6 SW 11 13 6 7 1019.2 1019.1 0.0
20/08:30pm 17.2 19.4 16.4 95 0.5 CALM 0 0 0 0 1019.0 - 0.0
20/08:00pm 18.5 20.9 17.0 91 0.9 CALM 0 0 0 0 1018.6 - 0.0
20/07:30pm 17.9 20.2 16.7 93 0.7 CALM 0 0 0 0 1018.4 - 0.0
20/07:00pm 19.2 20.0 17.4 89 1.1 S 9 11 5 6 1018.2 - 0.0
20/06:30pm 19.2 21.3 17.1 88 1.3 SE 2 7 1 4 1018.0 - 0.0
20/06:00pm 20.1 22.8 17.7 86 1.5 CALM 0 0 0 0 1017.9 1017.8 0.0
20/05:30pm 21.0 23.6 17.4 80 2.2 CALM 0 0 0 0 1017.7 - 0.0
20/05:00pm 22.1 24.7 17.6 75 2.8 CALM 0 0 0 0 1017.4 - 0.0
20/04:30pm 22.8 24.1 17.5 72 3.3 ESE 7 9 4 5 1017.6 - 0.0
20/04:00pm 22.8 23.7 17.5 72 3.3 SE 9 11 5 6 1017.5 - 0.0
20/03:30pm 23.0 23.6 16.8 68 3.8 E 9 11 5 6 1017.2 - 0.0
20/03:00pm 23.4 23.9 16.5 65 4.2 ENE 9 13 5 7 1017.4 1017.3 0.0
20/02:30pm 23.2 24.3 17.0 68 3.8 E 7 11 4 6 1017.4 - 0.0
20/02:00pm 23.7 24.9 16.9 65 4.2 ENE 6 11 3 6 1017.6 - 0.0
20/01:30pm 23.2 24.2 16.8 67 3.9 ESE 7 11 4 6 1017.8 - 0.0
20/01:00pm 22.9 23.8 16.5 67 3.9 NE 7 11 4 6 1018.3 - 0.0
20/12:30pm 21.7 22.5 16.4 72 3.2 NNE 7 11 4 6 1018.5 - 0.0
20/12:00pm 21.4 22.4 16.4 73 3.0 WNW 6 11 3 6 1019.0 1018.9 0.0
20/11:30am 20.9 20.9 16.2 74 2.8 NNW 11 15 6 8 1019.6 - 0.0
20/11:00am 20.2 21.3 16.5 79 2.2 WNW 6 11 3 6 1020.0 - 0.0
20/10:30am 19.6 19.7 16.6 83 1.8 NW 11 15 6 8 1020.6 - 0.0
20/10:00am 19.3 19.1 16.6 84 1.6 WNW 13 17 7 9 1020.9 - 0.0

Other Formats:

Comma delimited format used in spreadsheet applications
http://www.bom.gov.au/fwo/IDQ60801/IDQ60801.94568.axf

JavaScript Object Notation format (JSON) in row-major order
http://www.bom.gov.au/fwo/IDQ60801/IDQ60801.94568.json